sensor_id;sensor_type;location;lat;lon;timestamp;P1;durP1;ratioP1;P2;durP2;ratioP2
52067;SDS011;60237;52.338;21.228;2022-11-14T00:00:45;174.85;;;44.05;;
52067;SDS011;60237;52.338;21.228;2022-11-14T00:03:30;175.75;;;45.40;;
52067;SDS011;60237;52.338;21.228;2022-11-14T00:06:14;155.32;;;42.63;;
52067;SDS011;60237;52.338;21.228;2022-11-14T00:08:59;174.10;;;43.97;;
52067;SDS011;60237;52.338;21.228;2022-11-14T00:11:44;160.30;;;44.03;;
52067;SDS011;60237;52.338;21.228;2022-11-14T00:14:30;154.48;;;43.83;;
52067;SDS011;60237;52.338;21.228;2022-11-14T00:17:15;149.40;;;40.88;;
52067;SDS011;60237;52.338;21.228;2022-11-14T00:20:00;130.82;;;41.47;;
52067;SDS011;60237;52.338;21.228;2022-11-14T00:22:45;152.07;;;43.15;;
52067;SDS011;60237;52.338;21.228;2022-11-14T00:25:30;162.05;;;43.50;;
52067;SDS011;60237;52.338;21.228;2022-11-14T00:28:15;138.48;;;40.78;;
52067;SDS011;60237;52.338;21.228;2022-11-14T00:31:01;190.73;;;45.80;;
52067;SDS011;60237;52.338;21.228;2022-11-14T00:33:46;154.15;;;43.30;;
52067;SDS011;60237;52.338;21.228;2022-11-14T00:36:31;170.30;;;43.10;;
52067;SDS011;60237;52.338;21.228;2022-11-14T00:39:16;145.43;;;41.00;;
52067;SDS011;60237;52.338;21.228;2022-11-14T00:42:01;151.15;;;40.63;;
52067;SDS011;60237;52.338;21.228;2022-11-14T00:44:46;163.25;;;42.17;;
52067;SDS011;60237;52.338;21.228;2022-11-14T00:47:30;139.25;;;40.47;;
52067;SDS011;60237;52.338;21.228;2022-11-14T00:50:15;130.73;;;38.20;;
52067;SDS011;60237;52.338;21.228;2022-11-14T00:53:00;154.30;;;40.55;;
52067;SDS011;60237;52.338;21.228;2022-11-14T00:55:45;158.77;;;42.08;;
52067;SDS011;60237;52.338;21.228;2022-11-14T00:58:30;154.20;;;39.85;;
52067;SDS011;60237;52.338;21.228;2022-11-14T01:01:15;123.82;;;36.30;;
52067;SDS011;60237;52.338;21.228;2022-11-14T01:04:00;129.15;;;37.75;;
52067;SDS011;60237;52.338;21.228;2022-11-14T01:06:46;136.00;;;36.33;;
52067;SDS011;60237;52.338;21.228;2022-11-14T01:09:31;120.18;;;38.10;;
52067;SDS011;60237;52.338;21.228;2022-11-14T01:12:16;177.98;;;42.33;;
52067;SDS011;60237;52.338;21.228;2022-11-14T01:15:01;169.65;;;43.35;;
52067;SDS011;60237;52.338;21.228;2022-11-14T01:17:46;136.82;;;39.50;;
52067;SDS011;60237;52.338;21.228;2022-11-14T01:20:30;175.85;;;42.83;;
52067;SDS011;60237;52.338;21.228;2022-11-14T01:23:16;137.88;;;35.83;;
52067;SDS011;60237;52.338;21.228;2022-11-14T01:26:01;158.35;;;40.42;;
52067;SDS011;60237;52.338;21.228;2022-11-14T01:28:47;187.77;;;42.25;;
52067;SDS011;60237;52.338;21.228;2022-11-14T01:31:31;149.82;;;39.47;;
52067;SDS011;60237;52.338;21.228;2022-11-14T01:34:16;117.22;;;34.05;;
52067;SDS011;60237;52.338;21.228;2022-11-14T01:37:01;145.38;;;36.90;;
52067;SDS011;60237;52.338;21.228;2022-11-14T01:39:46;156.95;;;40.95;;
52067;SDS011;60237;52.338;21.228;2022-11-14T01:42:31;129.00;;;35.58;;
52067;SDS011;60237;52.338;21.228;2022-11-14T01:54:13;111.00;;;33.15;;
52067;SDS011;60237;52.338;21.228;2022-11-14T01:57:00;133.88;;;36.65;;
52067;SDS011;60237;52.338;21.228;2022-11-14T01:59:50;128.52;;;34.63;;
52067;SDS011;60237;52.338;21.228;2022-11-14T02:02:36;123.88;;;34.97;;
52067;SDS011;60237;52.338;21.228;2022-11-14T02:05:22;118.72;;;33.00;;
52067;SDS011;60237;52.338;21.228;2022-11-14T02:08:08;125.28;;;33.17;;
52067;SDS011;60237;52.338;21.228;2022-11-14T02:10:55;126.03;;;33.42;;
52067;SDS011;60237;52.338;21.228;2022-11-14T02:13:40;114.35;;;31.23;;
52067;SDS011;60237;52.338;21.228;2022-11-14T02:16:25;109.80;;;31.05;;
52067;SDS011;60237;52.338;21.228;2022-11-14T02:19:12;106.15;;;31.30;;
52067;SDS011;60237;52.338;21.228;2022-11-14T02:21:58;123.95;;;34.20;;
52067;SDS011;60237;52.338;21.228;2022-11-14T02:24:43;111.60;;;31.08;;
52067;SDS011;60237;52.338;21.228;2022-11-14T02:27:28;99.40;;;31.73;;
52067;SDS011;60237;52.338;21.228;2022-11-14T02:30:16;104.35;;;30.80;;
52067;SDS011;60237;52.338;21.228;2022-11-14T02:33:01;89.22;;;28.88;;
52067;SDS011;60237;52.338;21.228;2022-11-14T02:35:55;80.97;;;26.90;;
52067;SDS011;60237;52.338;21.228;2022-11-14T02:38:39;75.30;;;25.60;;
52067;SDS011;60237;52.338;21.228;2022-11-14T02:41:24;88.20;;;27.20;;
52067;SDS011;60237;52.338;21.228;2022-11-14T02:44:09;92.18;;;28.88;;
52067;SDS011;60237;52.338;21.228;2022-11-14T02:46:54;116.82;;;30.38;;
52067;SDS011;60237;52.338;21.228;2022-11-14T02:49:39;103.75;;;31.45;;
52067;SDS011;60237;52.338;21.228;2022-11-14T02:52:24;94.13;;;29.13;;
52067;SDS011;60237;52.338;21.228;2022-11-14T02:55:09;93.63;;;28.55;;
52067;SDS011;60237;52.338;21.228;2022-11-14T02:57:54;97.93;;;29.25;;
52067;SDS011;60237;52.338;21.228;2022-11-14T03:00:39;90.97;;;27.17;;
52067;SDS011;60237;52.338;21.228;2022-11-14T03:03:43;96.50;;;27.25;;
52067;SDS011;60237;52.338;21.228;2022-11-14T03:06:28;94.50;;;28.58;;
52067;SDS011;60237;52.338;21.228;2022-11-14T03:09:13;66.32;;;23.52;;
52067;SDS011;60237;52.338;21.228;2022-11-14T03:11:58;88.20;;;26.77;;
52067;SDS011;60237;52.338;21.228;2022-11-14T03:14:43;74.55;;;26.35;;
52067;SDS011;60237;52.338;21.228;2022-11-14T03:17:32;90.55;;;28.35;;
52067;SDS011;60237;52.338;21.228;2022-11-14T03:20:17;91.50;;;25.70;;
52067;SDS011;60237;52.338;21.228;2022-11-14T03:23:02;91.15;;;27.90;;
52067;SDS011;60237;52.338;21.228;2022-11-14T03:25:48;106.25;;;28.45;;
52067;SDS011;60237;52.338;21.228;2022-11-14T03:28:33;81.45;;;25.38;;
52067;SDS011;60237;52.338;21.228;2022-11-14T03:31:18;84.10;;;26.08;;
52067;SDS011;60237;52.338;21.228;2022-11-14T03:34:03;79.38;;;25.15;;
52067;SDS011;60237;52.338;21.228;2022-11-14T03:36:48;87.80;;;27.23;;
52067;SDS011;60237;52.338;21.228;2022-11-14T03:39:33;98.28;;;28.75;;
52067;SDS011;60237;52.338;21.228;2022-11-14T03:42:18;78.95;;;26.15;;
52067;SDS011;60237;52.338;21.228;2022-11-14T03:45:03;96.35;;;29.48;;
52067;SDS011;60237;52.338;21.228;2022-11-14T03:47:48;101.72;;;31.42;;
52067;SDS011;60237;52.338;21.228;2022-11-14T03:50:33;84.13;;;29.45;;
52067;SDS011;60237;52.338;21.228;2022-11-14T03:53:18;96.60;;;30.50;;
52067;SDS011;60237;52.338;21.228;2022-11-14T03:56:03;93.55;;;29.55;;
52067;SDS011;60237;52.338;21.228;2022-11-14T03:58:48;99.90;;;29.98;;
52067;SDS011;60237;52.338;21.228;2022-11-14T04:01:33;109.90;;;31.20;;
52067;SDS011;60237;52.338;21.228;2022-11-14T04:04:18;99.63;;;30.90;;
52067;SDS011;60237;52.338;21.228;2022-11-14T04:07:03;93.25;;;29.75;;
52067;SDS011;60237;52.338;21.228;2022-11-14T04:09:48;132.73;;;34.58;;
52067;SDS011;60237;52.338;21.228;2022-11-14T04:12:33;113.25;;;31.83;;
52067;SDS011;60237;52.338;21.228;2022-11-14T04:15:19;105.97;;;30.55;;
52067;SDS011;60237;52.338;21.228;2022-11-14T04:18:04;88.93;;;29.48;;
52067;SDS011;60237;52.338;21.228;2022-11-14T04:20:48;87.57;;;26.63;;
52067;SDS011;60237;52.338;21.228;2022-11-14T04:23:33;93.15;;;27.70;;
52067;SDS011;60237;52.338;21.228;2022-11-14T04:26:18;102.70;;;27.98;;
52067;SDS011;60237;52.338;21.228;2022-11-14T04:29:03;100.28;;;28.55;;
52067;SDS011;60237;52.338;21.228;2022-11-14T04:31:48;113.72;;;30.38;;
52067;SDS011;60237;52.338;21.228;2022-11-14T04:34:33;71.50;;;25.95;;
52067;SDS011;60237;52.338;21.228;2022-11-14T04:37:17;98.47;;;28.83;;
52067;SDS011;60237;52.338;21.228;2022-11-14T04:40:03;90.88;;;26.65;;
52067;SDS011;60237;52.338;21.228;2022-11-14T04:42:48;81.03;;;26.75;;
52067;SDS011;60237;52.338;21.228;2022-11-14T04:45:32;79.47;;;27.98;;
52067;SDS011;60237;52.338;21.228;2022-11-14T04:48:18;76.82;;;26.30;;
52067;SDS011;60237;52.338;21.228;2022-11-14T04:51:03;97.50;;;28.77;;
52067;SDS011;60237;52.338;21.228;2022-11-14T04:53:47;83.55;;;26.92;;
52067;SDS011;60237;52.338;21.228;2022-11-14T04:56:32;77.25;;;26.83;;
52067;SDS011;60237;52.338;21.228;2022-11-14T04:59:17;113.00;;;31.13;;
52067;SDS011;60237;52.338;21.228;2022-11-14T05:02:05;83.72;;;26.05;;
52067;SDS011;60237;52.338;21.228;2022-11-14T05:04:49;93.40;;;26.30;;
52067;SDS011;60237;52.338;21.228;2022-11-14T05:07:34;66.40;;;24.30;;
52067;SDS011;60237;52.338;21.228;2022-11-14T05:10:20;84.63;;;26.77;;
52067;SDS011;60237;52.338;21.228;2022-11-14T05:13:05;92.78;;;26.67;;
52067;SDS011;60237;52.338;21.228;2022-11-14T05:15:49;70.68;;;23.52;;
52067;SDS011;60237;52.338;21.228;2022-11-14T05:18:34;58.22;;;22.23;;
52067;SDS011;60237;52.338;21.228;2022-11-14T05:21:20;80.43;;;25.35;;
52067;SDS011;60237;52.338;21.228;2022-11-14T05:24:05;71.88;;;23.10;;
52067;SDS011;60237;52.338;21.228;2022-11-14T05:26:50;79.68;;;24.27;;
52067;SDS011;60237;52.338;21.228;2022-11-14T05:29:35;58.92;;;21.27;;
52067;SDS011;60237;52.338;21.228;2022-11-14T05:32:20;65.63;;;23.00;;
52067;SDS011;60237;52.338;21.228;2022-11-14T05:35:06;74.57;;;23.02;;
52067;SDS011;60237;52.338;21.228;2022-11-14T05:37:51;95.50;;;25.80;;
52067;SDS011;60237;52.338;21.228;2022-11-14T05:40:42;73.20;;;23.65;;
52067;SDS011;60237;52.338;21.228;2022-11-14T05:43:28;72.72;;;23.83;;
52067;SDS011;60237;52.338;21.228;2022-11-14T05:46:13;64.57;;;22.05;;
52067;SDS011;60237;52.338;21.228;2022-11-14T05:48:59;64.68;;;23.92;;
52067;SDS011;60237;52.338;21.228;2022-11-14T05:51:43;82.55;;;25.73;;
52067;SDS011;60237;52.338;21.228;2022-11-14T05:54:28;69.68;;;23.90;;
52067;SDS011;60237;52.338;21.228;2022-11-14T05:57:13;77.40;;;23.60;;
52067;SDS011;60237;52.338;21.228;2022-11-14T05:59:58;82.93;;;24.52;;
52067;SDS011;60237;52.338;21.228;2022-11-14T06:02:43;79.30;;;22.75;;
52067;SDS011;60237;52.338;21.228;2022-11-14T06:05:29;67.32;;;22.67;;
52067;SDS011;60237;52.338;21.228;2022-11-14T06:08:14;69.82;;;23.27;;
52067;SDS011;60237;52.338;21.228;2022-11-14T06:11:00;84.68;;;23.75;;
52067;SDS011;60237;52.338;21.228;2022-11-14T06:13:46;92.40;;;25.05;;
52067;SDS011;60237;52.338;21.228;2022-11-14T06:16:31;59.75;;;21.52;;
52067;SDS011;60237;52.338;21.228;2022-11-14T06:19:16;66.25;;;22.60;;
52067;SDS011;60237;52.338;21.228;2022-11-14T06:22:01;58.05;;;21.13;;
52067;SDS011;60237;52.338;21.228;2022-11-14T06:24:46;68.88;;;21.67;;
52067;SDS011;60237;52.338;21.228;2022-11-14T06:27:30;59.40;;;22.10;;
52067;SDS011;60237;52.338;21.228;2022-11-14T06:30:15;60.60;;;20.95;;
52067;SDS011;60237;52.338;21.228;2022-11-14T06:33:01;76.22;;;24.38;;
52067;SDS011;60237;52.338;21.228;2022-11-14T06:35:46;67.53;;;22.67;;
52067;SDS011;60237;52.338;21.228;2022-11-14T06:38:31;65.43;;;22.40;;
52067;SDS011;60237;52.338;21.228;2022-11-14T06:41:17;85.38;;;26.02;;
52067;SDS011;60237;52.338;21.228;2022-11-14T06:44:03;58.83;;;21.55;;
52067;SDS011;60237;52.338;21.228;2022-11-14T06:46:48;70.57;;;21.02;;
52067;SDS011;60237;52.338;21.228;2022-11-14T06:49:33;65.93;;;19.88;;
52067;SDS011;60237;52.338;21.228;2022-11-14T06:52:24;51.08;;;19.80;;
52067;SDS011;60237;52.338;21.228;2022-11-14T06:55:10;68.97;;;20.00;;
52067;SDS011;60237;52.338;21.228;2022-11-14T06:57:55;57.92;;;18.55;;
52067;SDS011;60237;52.338;21.228;2022-11-14T07:00:40;52.55;;;17.58;;
52067;SDS011;60237;52.338;21.228;2022-11-14T07:03:25;62.53;;;18.42;;
52067;SDS011;60237;52.338;21.228;2022-11-14T07:06:10;53.92;;;16.67;;
52067;SDS011;60237;52.338;21.228;2022-11-14T07:08:56;59.40;;;17.30;;
52067;SDS011;60237;52.338;21.228;2022-11-14T07:11:41;51.83;;;16.10;;
52067;SDS011;60237;52.338;21.228;2022-11-14T07:14:29;43.10;;;14.38;;
52067;SDS011;60237;52.338;21.228;2022-11-14T07:17:13;61.28;;;17.38;;
52067;SDS011;60237;52.338;21.228;2022-11-14T07:19:58;59.33;;;16.35;;
52067;SDS011;60237;52.338;21.228;2022-11-14T07:22:46;50.20;;;15.88;;
52067;SDS011;60237;52.338;21.228;2022-11-14T07:25:31;59.58;;;16.13;;
52067;SDS011;60237;52.338;21.228;2022-11-14T07:28:16;52.58;;;16.00;;
52067;SDS011;60237;52.338;21.228;2022-11-14T07:31:02;46.58;;;15.73;;
52067;SDS011;60237;52.338;21.228;2022-11-14T07:33:47;45.67;;;12.93;;
52067;SDS011;60237;52.338;21.228;2022-11-14T07:36:32;41.38;;;12.60;;
52067;SDS011;60237;52.338;21.228;2022-11-14T07:39:17;46.80;;;12.45;;
52067;SDS011;60237;52.338;21.228;2022-11-14T07:42:02;36.47;;;11.25;;
52067;SDS011;60237;52.338;21.228;2022-11-14T07:44:47;37.92;;;11.18;;
52067;SDS011;60237;52.338;21.228;2022-11-14T07:47:32;39.13;;;10.45;;
52067;SDS011;60237;52.338;21.228;2022-11-14T07:50:17;40.17;;;11.13;;
52067;SDS011;60237;52.338;21.228;2022-11-14T07:53:04;40.67;;;10.35;;
52067;SDS011;60237;52.338;21.228;2022-11-14T07:55:49;45.17;;;9.98;;
52067;SDS011;60237;52.338;21.228;2022-11-14T07:58:38;39.92;;;9.45;;
52067;SDS011;60237;52.338;21.228;2022-11-14T08:01:23;37.97;;;9.07;;
52067;SDS011;60237;52.338;21.228;2022-11-14T08:04:08;24.75;;;7.07;;
52067;SDS011;60237;52.338;21.228;2022-11-14T08:06:53;33.47;;;7.05;;
52067;SDS011;60237;52.338;21.228;2022-11-14T08:09:38;37.03;;;10.75;;
52067;SDS011;60237;52.338;21.228;2022-11-14T08:12:23;30.08;;;7.85;;
52067;SDS011;60237;52.338;21.228;2022-11-14T08:15:08;23.33;;;5.90;;
52067;SDS011;60237;52.338;21.228;2022-11-14T08:17:57;26.85;;;5.90;;
52067;SDS011;60237;52.338;21.228;2022-11-14T08:20:42;22.48;;;5.68;;
52067;SDS011;60237;52.338;21.228;2022-11-14T08:23:27;34.78;;;6.70;;
52067;SDS011;60237;52.338;21.228;2022-11-14T08:26:12;26.92;;;5.45;;
52067;SDS011;60237;52.338;21.228;2022-11-14T08:28:57;32.03;;;6.30;;
52067;SDS011;60237;52.338;21.228;2022-11-14T08:31:42;35.38;;;6.53;;
52067;SDS011;60237;52.338;21.228;2022-11-14T08:34:27;24.10;;;6.15;;
52067;SDS011;60237;52.338;21.228;2022-11-14T08:37:13;28.23;;;6.38;;
52067;SDS011;60237;52.338;21.228;2022-11-14T08:39:58;25.63;;;6.15;;
52067;SDS011;60237;52.338;21.228;2022-11-14T08:42:42;27.17;;;6.45;;
52067;SDS011;60237;52.338;21.228;2022-11-14T08:45:28;41.25;;;7.55;;
52067;SDS011;60237;52.338;21.228;2022-11-14T08:48:13;33.50;;;6.63;;
52067;SDS011;60237;52.338;21.228;2022-11-14T08:51:04;32.65;;;6.75;;
52067;SDS011;60237;52.338;21.228;2022-11-14T08:53:50;33.50;;;6.55;;
52067;SDS011;60237;52.338;21.228;2022-11-14T08:56:36;30.48;;;7.03;;
52067;SDS011;60237;52.338;21.228;2022-11-14T08:59:21;33.97;;;7.25;;
52067;SDS011;60237;52.338;21.228;2022-11-14T09:02:09;22.23;;;6.00;;
52067;SDS011;60237;52.338;21.228;2022-11-14T09:04:55;35.95;;;7.63;;
52067;SDS011;60237;52.338;21.228;2022-11-14T09:07:40;45.60;;;8.40;;
52067;SDS011;60237;52.338;21.228;2022-11-14T09:10:25;32.25;;;6.47;;
52067;SDS011;60237;52.338;21.228;2022-11-14T09:13:10;24.45;;;5.80;;
52067;SDS011;60237;52.338;21.228;2022-11-14T09:15:55;37.85;;;6.82;;
52067;SDS011;60237;52.338;21.228;2022-11-14T09:18:40;22.23;;;5.13;;
52067;SDS011;60237;52.338;21.228;2022-11-14T09:21:25;36.95;;;7.32;;
52067;SDS011;60237;52.338;21.228;2022-11-14T09:24:10;29.13;;;5.82;;
52067;SDS011;60237;52.338;21.228;2022-11-14T09:26:55;32.17;;;5.50;;
52067;SDS011;60237;52.338;21.228;2022-11-14T09:29:41;39.38;;;6.97;;
52067;SDS011;60237;52.338;21.228;2022-11-14T09:32:26;29.17;;;5.93;;
52067;SDS011;60237;52.338;21.228;2022-11-14T09:35:11;31.00;;;6.15;;
52067;SDS011;60237;52.338;21.228;2022-11-14T09:38:03;50.22;;;7.85;;
52067;SDS011;60237;52.338;21.228;2022-11-14T09:40:56;30.15;;;5.68;;
52067;SDS011;60237;52.338;21.228;2022-11-14T09:43:57;25.70;;;5.43;;
52067;SDS011;60237;52.338;21.228;2022-11-14T09:46:57;24.48;;;5.50;;
52067;SDS011;60237;52.338;21.228;2022-11-14T09:49:45;37.45;;;6.03;;
52067;SDS011;60237;52.338;21.228;2022-11-14T09:55:17;16.85;;;4.53;;
52067;SDS011;60237;52.338;21.228;2022-11-14T09:58:02;29.40;;;5.88;;
52067;SDS011;60237;52.338;21.228;2022-11-14T10:03:41;17.88;;;4.03;;
52067;SDS011;60237;52.338;21.228;2022-11-14T10:06:32;34.15;;;5.68;;
52067;SDS011;60237;52.338;21.228;2022-11-14T10:12:20;33.40;;;5.82;;
52067;SDS011;60237;52.338;21.228;2022-11-14T10:18:24;37.28;;;6.45;;
52067;SDS011;60237;52.338;21.228;2022-11-14T10:24:19;30.55;;;5.55;;
52067;SDS011;60237;52.338;21.228;2022-11-14T10:27:52;19.92;;;4.57;;
52067;SDS011;60237;52.338;21.228;2022-11-14T10:30:16;20.63;;;4.68;;
52067;SDS011;60237;52.338;21.228;2022-11-14T10:36:12;37.55;;;6.35;;
52067;SDS011;60237;52.338;21.228;2022-11-14T10:41:56;43.40;;;6.82;;
52067;SDS011;60237;52.338;21.228;2022-11-14T10:44:56;26.15;;;5.28;;
52067;SDS011;60237;52.338;21.228;2022-11-14T10:48:08;26.42;;;4.97;;
52067;SDS011;60237;52.338;21.228;2022-11-14T10:50:55;32.15;;;6.45;;
52067;SDS011;60237;52.338;21.228;2022-11-14T10:53:49;28.05;;;5.53;;
52067;SDS011;60237;52.338;21.228;2022-11-14T10:56:47;24.83;;;4.75;;
52067;SDS011;60237;52.338;21.228;2022-11-14T10:59:32;31.17;;;6.00;;
52067;SDS011;60237;52.338;21.228;2022-11-14T11:02:17;37.63;;;6.30;;
52067;SDS011;60237;52.338;21.228;2022-11-14T11:05:04;28.33;;;5.95;;
52067;SDS011;60237;52.338;21.228;2022-11-14T11:07:57;40.95;;;7.47;;
52067;SDS011;60237;52.338;21.228;2022-11-14T11:11:21;20.40;;;5.55;;
52067;SDS011;60237;52.338;21.228;2022-11-14T11:14:17;24.42;;;6.50;;
52067;SDS011;60237;52.338;21.228;2022-11-14T11:22:40;25.23;;;8.02;;
52067;SDS011;60237;52.338;21.228;2022-11-14T11:25:27;38.28;;;9.77;;
52067;SDS011;60237;52.338;21.228;2022-11-14T11:28:13;26.13;;;8.45;;
52067;SDS011;60237;52.338;21.228;2022-11-14T11:30:59;23.38;;;8.32;;
52067;SDS011;60237;52.338;21.228;2022-11-14T11:33:45;56.28;;;11.65;;
52067;SDS011;60237;52.338;21.228;2022-11-14T11:36:29;22.25;;;7.65;;
52067;SDS011;60237;52.338;21.228;2022-11-14T11:39:22;24.25;;;7.80;;
52067;SDS011;60237;52.338;21.228;2022-11-14T11:42:10;38.95;;;10.15;;
52067;SDS011;60237;52.338;21.228;2022-11-14T11:44:59;28.20;;;9.23;;
52067;SDS011;60237;52.338;21.228;2022-11-14T11:48:30;34.25;;;11.55;;
52067;SDS011;60237;52.338;21.228;2022-11-14T11:50:54;44.08;;;12.98;;
52067;SDS011;60237;52.338;21.228;2022-11-14T11:53:42;60.67;;;13.95;;
52067;SDS011;60237;52.338;21.228;2022-11-14T11:56:31;41.97;;;12.38;;
52067;SDS011;60237;52.338;21.228;2022-11-14T12:02:02;50.97;;;13.45;;
52067;SDS011;60237;52.338;21.228;2022-11-14T12:04:57;38.13;;;13.20;;
52067;SDS011;60237;52.338;21.228;2022-11-14T12:07:44;43.08;;;14.38;;
52067;SDS011;60237;52.338;21.228;2022-11-14T12:10:34;47.58;;;14.02;;
52067;SDS011;60237;52.338;21.228;2022-11-14T12:19:15;28.70;;;12.10;;
52067;SDS011;60237;52.338;21.228;2022-11-14T12:22:10;40.38;;;13.90;;
52067;SDS011;60237;52.338;21.228;2022-11-14T12:25:07;26.52;;;11.88;;
52067;SDS011;60237;52.338;21.228;2022-11-14T12:28:23;30.58;;;12.60;;
52067;SDS011;60237;52.338;21.228;2022-11-14T12:31:11;37.65;;;12.98;;
52067;SDS011;60237;52.338;21.228;2022-11-14T12:33:59;35.45;;;12.43;;
52067;SDS011;60237;52.338;21.228;2022-11-14T12:36:45;47.15;;;15.13;;
52067;SDS011;60237;52.338;21.228;2022-11-14T12:39:30;53.40;;;16.42;;
52067;SDS011;60237;52.338;21.228;2022-11-14T12:42:17;46.55;;;14.23;;
52067;SDS011;60237;52.338;21.228;2022-11-14T12:45:03;36.03;;;13.63;;
52067;SDS011;60237;52.338;21.228;2022-11-14T12:48:12;54.22;;;15.82;;
52067;SDS011;60237;52.338;21.228;2022-11-14T12:50:54;38.58;;;15.32;;
52067;SDS011;60237;52.338;21.228;2022-11-14T12:53:39;49.17;;;15.38;;
52067;SDS011;60237;52.338;21.228;2022-11-14T12:59:53;35.53;;;12.35;;
52067;SDS011;60237;52.338;21.228;2022-11-14T13:11:31;40.80;;;13.55;;
52067;SDS011;60237;52.338;21.228;2022-11-14T13:14:26;29.83;;;12.38;;
52067;SDS011;60237;52.338;21.228;2022-11-14T13:17:30;42.35;;;13.95;;
52067;SDS011;60237;52.338;21.228;2022-11-14T13:20:34;28.77;;;12.68;;
52067;SDS011;60237;52.338;21.228;2022-11-14T13:35:29;47.35;;;16.45;;
52067;SDS011;60237;52.338;21.228;2022-11-14T13:41:21;55.13;;;17.05;;
52067;SDS011;60237;52.338;21.228;2022-11-14T13:50:14;50.17;;;17.00;;
52067;SDS011;60237;52.338;21.228;2022-11-14T13:53:01;69.13;;;19.67;;
52067;SDS011;60237;52.338;21.228;2022-11-14T13:55:54;68.63;;;21.90;;
52067;SDS011;60237;52.338;21.228;2022-11-14T14:01:41;53.92;;;21.13;;
52067;SDS011;60237;52.338;21.228;2022-11-14T14:07:39;42.10;;;19.63;;
52067;SDS011;60237;52.338;21.228;2022-11-14T14:16:06;51.65;;;20.75;;
52067;SDS011;60237;52.338;21.228;2022-11-14T14:18:58;64.95;;;20.85;;
52067;SDS011;60237;52.338;21.228;2022-11-14T14:22:03;68.72;;;20.70;;
52067;SDS011;60237;52.338;21.228;2022-11-14T14:25:03;53.72;;;20.95;;
52067;SDS011;60237;52.338;21.228;2022-11-14T14:28:10;58.92;;;20.42;;
52067;SDS011;60237;52.338;21.228;2022-11-14T14:30:59;44.75;;;19.77;;
52067;SDS011;60237;52.338;21.228;2022-11-14T14:33:46;65.55;;;20.48;;
52067;SDS011;60237;52.338;21.228;2022-11-14T14:36:31;47.08;;;19.45;;
52067;SDS011;60237;52.338;21.228;2022-11-14T14:39:17;52.08;;;18.55;;
52067;SDS011;60237;52.338;21.228;2022-11-14T14:42:03;61.97;;;20.85;;
52067;SDS011;60237;52.338;21.228;2022-11-14T14:44:53;54.50;;;19.35;;
52067;SDS011;60237;52.338;21.228;2022-11-14T14:47:40;58.60;;;20.27;;
52067;SDS011;60237;52.338;21.228;2022-11-14T14:50:26;57.20;;;20.33;;
52067;SDS011;60237;52.338;21.228;2022-11-14T14:58:52;55.92;;;20.65;;
52067;SDS011;60237;52.338;21.228;2022-11-14T15:01:37;54.15;;;20.95;;
52067;SDS011;60237;52.338;21.228;2022-11-14T15:04:23;55.70;;;20.73;;
52067;SDS011;60237;52.338;21.228;2022-11-14T15:07:22;50.03;;;21.77;;
52067;SDS011;60237;52.338;21.228;2022-11-14T15:10:17;52.00;;;20.95;;
52067;SDS011;60237;52.338;21.228;2022-11-14T15:13:04;62.30;;;23.10;;
52067;SDS011;60237;52.338;21.228;2022-11-14T15:15:49;83.47;;;26.02;;
52067;SDS011;60237;52.338;21.228;2022-11-14T15:18:34;67.97;;;24.48;;
52067;SDS011;60237;52.338;21.228;2022-11-14T15:24:16;83.88;;;26.38;;
52067;SDS011;60237;52.338;21.228;2022-11-14T15:27:02;62.80;;;24.20;;
52067;SDS011;60237;52.338;21.228;2022-11-14T15:29:51;75.10;;;25.17;;
52067;SDS011;60237;52.338;21.228;2022-11-14T15:32:36;66.72;;;23.83;;
52067;SDS011;60237;52.338;21.228;2022-11-14T15:35:32;63.83;;;23.13;;
52067;SDS011;60237;52.338;21.228;2022-11-14T15:38:18;56.20;;;22.50;;
52067;SDS011;60237;52.338;21.228;2022-11-14T15:41:24;50.92;;;21.60;;
52067;SDS011;60237;52.338;21.228;2022-11-14T15:44:30;67.38;;;23.60;;
52067;SDS011;60237;52.338;21.228;2022-11-14T15:47:23;62.08;;;21.42;;
52067;SDS011;60237;52.338;21.228;2022-11-14T15:55:41;86.90;;;25.38;;
52067;SDS011;60237;52.338;21.228;2022-11-14T15:58:26;61.70;;;22.90;;
52067;SDS011;60237;52.338;21.228;2022-11-14T16:01:24;75.40;;;26.10;;
52067;SDS011;60237;52.338;21.228;2022-11-14T16:04:13;94.85;;;27.25;;
52067;SDS011;60237;52.338;21.228;2022-11-14T16:06:58;64.10;;;24.80;;
52067;SDS011;60237;52.338;21.228;2022-11-14T16:09:44;73.20;;;26.40;;
52067;SDS011;60237;52.338;21.228;2022-11-14T16:12:29;79.80;;;28.38;;
52067;SDS011;60237;52.338;21.228;2022-11-14T16:15:14;82.07;;;27.33;;
52067;SDS011;60237;52.338;21.228;2022-11-14T16:17:59;80.10;;;27.50;;
52067;SDS011;60237;52.338;21.228;2022-11-14T16:20:44;130.15;;;30.20;;
52067;SDS011;60237;52.338;21.228;2022-11-14T16:23:28;71.05;;;24.98;;
52067;SDS011;60237;52.338;21.228;2022-11-14T16:26:14;111.05;;;29.35;;
52067;SDS011;60237;52.338;21.228;2022-11-14T16:28:59;73.60;;;26.48;;
52067;SDS011;60237;52.338;21.228;2022-11-14T16:31:44;73.35;;;26.30;;
52067;SDS011;60237;52.338;21.228;2022-11-14T16:34:29;74.75;;;26.40;;
52067;SDS011;60237;52.338;21.228;2022-11-14T16:37:14;71.57;;;30.60;;
52067;SDS011;60237;52.338;21.228;2022-11-14T16:39:59;75.95;;;27.98;;
52067;SDS011;60237;52.338;21.228;2022-11-14T16:42:45;89.10;;;28.00;;
52067;SDS011;60237;52.338;21.228;2022-11-14T16:45:30;84.40;;;27.65;;
52067;SDS011;60237;52.338;21.228;2022-11-14T16:48:15;91.78;;;29.30;;
52067;SDS011;60237;52.338;21.228;2022-11-14T16:51:00;89.07;;;28.90;;
52067;SDS011;60237;52.338;21.228;2022-11-14T16:56:49;103.57;;;29.83;;
52067;SDS011;60237;52.338;21.228;2022-11-14T16:59:34;83.55;;;28.13;;
52067;SDS011;60237;52.338;21.228;2022-11-14T17:02:19;83.38;;;27.95;;
52067;SDS011;60237;52.338;21.228;2022-11-14T17:05:04;90.97;;;28.83;;
52067;SDS011;60237;52.338;21.228;2022-11-14T17:07:49;92.70;;;28.20;;
52067;SDS011;60237;52.338;21.228;2022-11-14T17:10:38;69.32;;;27.15;;
52067;SDS011;60237;52.338;21.228;2022-11-14T17:13:23;103.38;;;30.60;;
52067;SDS011;60237;52.338;21.228;2022-11-14T17:16:09;74.93;;;25.63;;
52067;SDS011;60237;52.338;21.228;2022-11-14T17:18:54;89.85;;;27.92;;
52067;SDS011;60237;52.338;21.228;2022-11-14T17:21:39;66.07;;;24.90;;
52067;SDS011;60237;52.338;21.228;2022-11-14T17:24:24;77.30;;;26.58;;
52067;SDS011;60237;52.338;21.228;2022-11-14T17:27:15;82.13;;;27.00;;
52067;SDS011;60237;52.338;21.228;2022-11-14T17:30:00;69.28;;;25.83;;
52067;SDS011;60237;52.338;21.228;2022-11-14T17:32:44;66.90;;;23.20;;
52067;SDS011;60237;52.338;21.228;2022-11-14T17:35:29;75.88;;;25.95;;
52067;SDS011;60237;52.338;21.228;2022-11-14T17:38:14;98.75;;;28.77;;
52067;SDS011;60237;52.338;21.228;2022-11-14T17:40:59;74.70;;;25.77;;
52067;SDS011;60237;52.338;21.228;2022-11-14T17:43:45;70.72;;;26.90;;
52067;SDS011;60237;52.338;21.228;2022-11-14T17:46:30;58.95;;;24.88;;
52067;SDS011;60237;52.338;21.228;2022-11-14T17:49:16;77.05;;;25.88;;